sensor_id;sensor_type;location;lat;lon;timestamp;P1;durP1;ratioP1;P2;durP2;ratioP2
53939;SDS011;39850;43.324;21.916;2023-04-24T00:18:47;11.0;;;11.0;;
53939;SDS011;39850;43.324;21.916;2023-04-24T00:23:24;11.0;;;11.0;;
53939;SDS011;39850;43.324;21.916;2023-04-24T00:28:01;11.0;;;11.0;;
53939;SDS011;39850;43.324;21.916;2023-04-24T00:32:38;11.0;;;11.0;;
53939;SDS011;39850;43.324;21.916;2023-04-24T00:37:16;12.0;;;11.0;;
53939;SDS011;39850;43.324;21.916;2023-04-24T00:41:54;12.0;;;11.0;;
53939;SDS011;39850;43.324;21.916;2023-04-24T00:46:33;12.0;;;11.0;;
53939;SDS011;39850;43.324;21.916;2023-04-24T00:51:11;12.0;;;11.0;;
53939;SDS011;39850;43.324;21.916;2023-04-24T00:55:50;12.0;;;11.0;;
53939;SDS011;39850;43.324;21.916;2023-04-24T01:00:28;12.0;;;11.0;;
53939;SDS011;39850;43.324;21.916;2023-04-24T01:05:09;12.0;;;11.0;;
53939;SDS011;39850;43.324;21.916;2023-04-24T01:37:36;21.0;;;15.0;;
53939;SDS011;39850;43.324;21.916;2023-04-24T01:42:14;21.0;;;15.0;;
53939;SDS011;39850;43.324;21.916;2023-04-24T01:46:52;21.0;;;15.0;;
53939;SDS011;39850;43.324;21.916;2023-04-24T01:51:29;16.0;;;12.0;;
53939;SDS011;39850;43.324;21.916;2023-04-24T01:56:07;16.0;;;12.0;;
53939;SDS011;39850;43.324;21.916;2023-04-24T02:00:44;12.0;;;10.0;;
53939;SDS011;39850;43.324;21.916;2023-04-24T02:05:21;12.0;;;10.0;;
53939;SDS011;39850;43.324;21.916;2023-04-24T02:09:58;12.0;;;10.0;;
53939;SDS011;39850;43.324;21.916;2023-04-24T02:14:35;12.0;;;10.0;;
53939;SDS011;39850;43.324;21.916;2023-04-24T02:19:11;11.0;;;10.0;;
53939;SDS011;39850;43.324;21.916;2023-04-24T02:23:48;11.0;;;10.0;;
53939;SDS011;39850;43.324;21.916;2023-04-24T03:00:40;12.0;;;10.0;;
53939;SDS011;39850;43.324;21.916;2023-04-24T03:05:17;12.0;;;10.0;;
53939;SDS011;39850;43.324;21.916;2023-04-24T03:09:54;12.0;;;10.0;;
53939;SDS011;39850;43.324;21.916;2023-04-24T03:14:31;12.0;;;10.0;;
53939;SDS011;39850;43.324;21.916;2023-04-24T03:19:08;11.0;;;10.0;;
53939;SDS011;39850;43.324;21.916;2023-04-24T03:23:46;11.0;;;10.0;;
53939;SDS011;39850;43.324;21.916;2023-04-24T03:28:23;11.0;;;10.0;;
53939;SDS011;39850;43.324;21.916;2023-04-24T03:33:01;11.0;;;10.0;;
53939;SDS011;39850;43.324;21.916;2023-04-24T03:37:38;11.0;;;10.0;;
53939;SDS011;39850;43.324;21.916;2023-04-24T03:42:15;11.0;;;10.0;;
53939;SDS011;39850;43.324;21.916;2023-04-24T03:46:52;11.0;;;10.0;;
53939;SDS011;39850;43.324;21.916;2023-04-24T04:19:08;10.0;;;9.0;;
53939;SDS011;39850;43.324;21.916;2023-04-24T04:23:45;10.0;;;9.0;;
53939;SDS011;39850;43.324;21.916;2023-04-24T04:28:21;10.0;;;9.0;;
53939;SDS011;39850;43.324;21.916;2023-04-24T04:32:58;10.0;;;9.0;;
53939;SDS011;39850;43.324;21.916;2023-04-24T04:37:36;10.0;;;9.0;;
53939;SDS011;39850;43.324;21.916;2023-04-24T04:42:12;10.0;;;9.0;;
53939;SDS011;39850;43.324;21.916;2023-04-24T04:46:50;10.0;;;9.0;;
53939;SDS011;39850;43.324;21.916;2023-04-24T04:51:26;10.0;;;9.0;;
53939;SDS011;39850;43.324;21.916;2023-04-24T04:56:04;10.0;;;9.0;;
53939;SDS011;39850;43.324;21.916;2023-04-24T05:42:09;10.0;;;9.0;;
53939;SDS011;39850;43.324;21.916;2023-04-24T05:46:46;10.0;;;9.0;;
53939;SDS011;39850;43.324;21.916;2023-04-24T05:51:24;10.0;;;9.0;;
53939;SDS011;39850;43.324;21.916;2023-04-24T05:56:01;10.0;;;9.0;;
53939;SDS011;39850;43.324;21.916;2023-04-24T06:00:39;10.0;;;9.0;;
53939;SDS011;39850;43.324;21.916;2023-04-24T06:05:16;10.0;;;9.0;;
53939;SDS011;39850;43.324;21.916;2023-04-24T06:09:53;11.0;;;9.0;;
53939;SDS011;39850;43.324;21.916;2023-04-24T06:14:30;11.0;;;9.0;;
53939;SDS011;39850;43.324;21.916;2023-04-24T07:00:41;10.0;;;8.0;;
53939;SDS011;39850;43.324;21.916;2023-04-24T07:05:17;10.0;;;8.0;;
53939;SDS011;39850;43.324;21.916;2023-04-24T07:09:54;10.0;;;8.0;;
53939;SDS011;39850;43.324;21.916;2023-04-24T07:14:30;10.0;;;8.0;;
53939;SDS011;39850;43.324;21.916;2023-04-24T07:19:07;10.0;;;8.0;;
53939;SDS011;39850;43.324;21.916;2023-04-24T07:23:44;10.0;;;8.0;;
53939;SDS011;39850;43.324;21.916;2023-04-24T07:28:20;10.0;;;8.0;;
53939;SDS011;39850;43.324;21.916;2023-04-24T07:32:57;10.0;;;8.0;;
53939;SDS011;39850;43.324;21.916;2023-04-24T07:37:33;10.0;;;8.0;;
53939;SDS011;39850;43.324;21.916;2023-04-24T08:19:04;10.0;;;8.0;;
53939;SDS011;39850;43.324;21.916;2023-04-24T08:23:42;10.0;;;8.0;;
53939;SDS011;39850;43.324;21.916;2023-04-24T08:28:19;10.0;;;8.0;;
53939;SDS011;39850;43.324;21.916;2023-04-24T08:32:56;10.0;;;8.0;;
53939;SDS011;39850;43.324;21.916;2023-04-24T08:37:33;10.0;;;8.0;;
53939;SDS011;39850;43.324;21.916;2023-04-24T08:42:17;10.0;;;8.0;;
53939;SDS011;39850;43.324;21.916;2023-04-24T08:46:56;10.0;;;8.0;;
53939;SDS011;39850;43.324;21.916;2023-04-24T08:51:37;9.0;;;7.0;;
53939;SDS011;39850;43.324;21.916;2023-04-24T08:56:16;9.0;;;7.0;;
53939;SDS011;39850;43.324;21.916;2023-04-24T09:00:58;9.0;;;7.0;;
53939;SDS011;39850;43.324;21.916;2023-04-24T09:05:35;9.0;;;7.0;;
53939;SDS011;39850;43.324;21.916;2023-04-24T09:42:56;9.0;;;7.0;;
53939;SDS011;39850;43.324;21.916;2023-04-24T09:47:39;9.0;;;7.0;;
53939;SDS011;39850;43.324;21.916;2023-04-24T09:52:16;9.0;;;7.0;;
53939;SDS011;39850;43.324;21.916;2023-04-24T09:56:55;9.0;;;7.0;;
53939;SDS011;39850;43.324;21.916;2023-04-24T10:01:34;9.0;;;7.0;;
53939;SDS011;39850;43.324;21.916;2023-04-24T10:06:14;9.0;;;7.0;;
53939;SDS011;39850;43.324;21.916;2023-04-24T10:10:51;9.0;;;7.0;;
53939;SDS011;39850;43.324;21.916;2023-04-24T10:15:29;9.0;;;7.0;;
53939;SDS011;39850;43.324;21.916;2023-04-24T10:20:10;9.0;;;7.0;;
53939;SDS011;39850;43.324;21.916;2023-04-24T10:24:52;9.0;;;7.0;;
53939;SDS011;39850;43.324;21.916;2023-04-24T11:02:09;13.0;;;11.0;;
53939;SDS011;39850;43.324;21.916;2023-04-24T11:06:46;13.0;;;11.0;;
53939;SDS011;39850;43.324;21.916;2023-04-24T11:11:32;12.0;;;10.0;;
53939;SDS011;39850;43.324;21.916;2023-04-24T11:16:32;12.0;;;10.0;;
53939;SDS011;39850;43.324;21.916;2023-04-24T11:21:16;11.0;;;10.0;;
53939;SDS011;39850;43.324;21.916;2023-04-24T11:26:21;11.0;;;10.0;;
53939;SDS011;39850;43.324;21.916;2023-04-24T11:30:58;10.0;;;8.0;;
53939;SDS011;39850;43.324;21.916;2023-04-24T11:36:13;10.0;;;8.0;;
53939;SDS011;39850;43.324;21.916;2023-04-24T11:40:54;9.0;;;7.0;;
53939;SDS011;39850;43.324;21.916;2023-04-24T11:45:32;9.0;;;7.0;;
53939;SDS011;39850;43.324;21.916;2023-04-24T12:22:57;10.0;;;8.0;;
53939;SDS011;39850;43.324;21.916;2023-04-24T12:27:35;10.0;;;8.0;;
53939;SDS011;39850;43.324;21.916;2023-04-24T12:32:17;10.0;;;8.0;;
53939;SDS011;39850;43.324;21.916;2023-04-24T12:36:53;10.0;;;8.0;;
53939;SDS011;39850;43.324;21.916;2023-04-24T12:41:31;11.0;;;8.0;;
53939;SDS011;39850;43.324;21.916;2023-04-24T12:46:08;11.0;;;8.0;;
53939;SDS011;39850;43.324;21.916;2023-04-24T12:50:44;12.0;;;10.0;;
53939;SDS011;39850;43.324;21.916;2023-04-24T12:55:22;12.0;;;10.0;;
53939;SDS011;39850;43.324;21.916;2023-04-24T12:59:59;13.0;;;12.0;;
53939;SDS011;39850;43.324;21.916;2023-04-24T13:04:36;13.0;;;12.0;;
53939;SDS011;39850;43.324;21.916;2023-04-24T13:09:13;13.0;;;12.0;;
53939;SDS011;39850;43.324;21.916;2023-04-24T13:41:35;12.0;;;9.0;;
53939;SDS011;39850;43.324;21.916;2023-04-24T13:46:12;12.0;;;9.0;;
53939;SDS011;39850;43.324;21.916;2023-04-24T13:50:49;12.0;;;8.0;;
53939;SDS011;39850;43.324;21.916;2023-04-24T13:55:26;12.0;;;8.0;;
53939;SDS011;39850;43.324;21.916;2023-04-24T14:00:11;11.0;;;8.0;;
53939;SDS011;39850;43.324;21.916;2023-04-24T14:04:50;11.0;;;8.0;;
53939;SDS011;39850;43.324;21.916;2023-04-24T14:09:27;11.0;;;8.0;;
53939;SDS011;39850;43.324;21.916;2023-04-24T14:14:06;10.0;;;8.0;;
53939;SDS011;39850;43.324;21.916;2023-04-24T14:18:43;10.0;;;8.0;;
53939;SDS011;39850;43.324;21.916;2023-04-24T14:23:20;10.0;;;7.0;;
53939;SDS011;39850;43.324;21.916;2023-04-24T14:27:57;10.0;;;7.0;;
53939;SDS011;39850;43.324;21.916;2023-04-24T15:00:18;27.0;;;27.0;;
53939;SDS011;39850;43.324;21.916;2023-04-24T15:04:55;27.0;;;27.0;;
53939;SDS011;39850;43.324;21.916;2023-04-24T15:09:31;27.0;;;27.0;;
53939;SDS011;39850;43.324;21.916;2023-04-24T15:14:08;28.0;;;29.0;;
53939;SDS011;39850;43.324;21.916;2023-04-24T15:18:44;28.0;;;29.0;;
53939;SDS011;39850;43.324;21.916;2023-04-24T15:23:21;27.0;;;27.0;;
53939;SDS011;39850;43.324;21.916;2023-04-24T15:27:58;27.0;;;27.0;;
53939;SDS011;39850;43.324;21.916;2023-04-24T15:32:35;22.0;;;23.0;;
53939;SDS011;39850;43.324;21.916;2023-04-24T15:37:12;22.0;;;23.0;;
53939;SDS011;39850;43.324;21.916;2023-04-24T15:41:49;15.0;;;15.0;;
53939;SDS011;39850;43.324;21.916;2023-04-24T15:46:26;15.0;;;15.0;;
53939;SDS011;39850;43.324;21.916;2023-04-24T16:23:21;10.0;;;8.0;;
53939;SDS011;39850;43.324;21.916;2023-04-24T16:27:59;10.0;;;8.0;;
53939;SDS011;39850;43.324;21.916;2023-04-24T16:32:35;10.0;;;8.0;;
53939;SDS011;39850;43.324;21.916;2023-04-24T16:37:12;10.0;;;8.0;;
53939;SDS011;39850;43.324;21.916;2023-04-24T16:41:50;10.0;;;8.0;;
53939;SDS011;39850;43.324;21.916;2023-04-24T16:46:27;10.0;;;8.0;;
53939;SDS011;39850;43.324;21.916;2023-04-24T16:51:04;10.0;;;9.0;;
53939;SDS011;39850;43.324;21.916;2023-04-24T16:55:41;10.0;;;9.0;;
53939;SDS011;39850;43.324;21.916;2023-04-24T17:41:51;12.0;;;10.0;;
53939;SDS011;39850;43.324;21.916;2023-04-24T17:46:27;12.0;;;10.0;;
53939;SDS011;39850;43.324;21.916;2023-04-24T17:51:04;12.0;;;10.0;;
53939;SDS011;39850;43.324;21.916;2023-04-24T17:55:42;12.0;;;10.0;;
53939;SDS011;39850;43.324;21.916;2023-04-24T18:00:19;12.0;;;10.0;;
53939;SDS011;39850;43.324;21.916;2023-04-24T18:04:56;11.0;;;10.0;;
53939;SDS011;39850;43.324;21.916;2023-04-24T18:09:32;11.0;;;10.0;;
53939;SDS011;39850;43.324;21.916;2023-04-24T18:14:08;10.0;;;10.0;;
53939;SDS011;39850;43.324;21.916;2023-04-24T18:18:45;10.0;;;10.0;;
53939;SDS011;39850;43.324;21.916;2023-04-24T18:23:21;10.0;;;9.0;;
53939;SDS011;39850;43.324;21.916;2023-04-24T18:27:58;10.0;;;9.0;;
53939;SDS011;39850;43.324;21.916;2023-04-24T19:04:52;9.0;;;7.0;;
53939;SDS011;39850;43.324;21.916;2023-04-24T19:09:28;9.0;;;7.0;;
53939;SDS011;39850;43.324;21.916;2023-04-24T19:14:06;9.0;;;7.0;;
53939;SDS011;39850;43.324;21.916;2023-04-24T19:18:42;9.0;;;7.0;;
53939;SDS011;39850;43.324;21.916;2023-04-24T19:23:20;9.0;;;7.0;;
53939;SDS011;39850;43.324;21.916;2023-04-24T19:27:56;9.0;;;7.0;;
53939;SDS011;39850;43.324;21.916;2023-04-24T19:32:33;9.0;;;8.0;;
53939;SDS011;39850;43.324;21.916;2023-04-24T19:37:11;9.0;;;8.0;;
53939;SDS011;39850;43.324;21.916;2023-04-24T19:41:48;9.0;;;8.0;;
53939;SDS011;39850;43.324;21.916;2023-04-24T19:46:25;9.0;;;8.0;;
53939;SDS011;39850;43.324;21.916;2023-04-24T20:23:19;16.0;;;14.0;;
53939;SDS011;39850;43.324;21.916;2023-04-24T20:27:56;16.0;;;14.0;;
53939;SDS011;39850;43.324;21.916;2023-04-24T20:32:33;14.0;;;12.0;;
53939;SDS011;39850;43.324;21.916;2023-04-24T20:37:09;14.0;;;12.0;;
53939;SDS011;39850;43.324;21.916;2023-04-24T20:41:45;14.0;;;12.0;;
53939;SDS011;39850;43.324;21.916;2023-04-24T20:46:22;14.0;;;12.0;;
53939;SDS011;39850;43.324;21.916;2023-04-24T20:50:58;14.0;;;12.0;;
53939;SDS011;39850;43.324;21.916;2023-04-24T20:55:35;12.0;;;10.0;;
53939;SDS011;39850;43.324;21.916;2023-04-24T21:00:15;12.0;;;10.0;;
53939;SDS011;39850;43.324;21.916;2023-04-24T21:41:48;56.0;;;30.0;;
53939;SDS011;39850;43.324;21.916;2023-04-24T21:46:26;56.0;;;30.0;;
53939;SDS011;39850;43.324;21.916;2023-04-24T21:51:03;56.0;;;30.0;;
53939;SDS011;39850;43.324;21.916;2023-04-24T21:55:40;33.0;;;20.0;;
53939;SDS011;39850;43.324;21.916;2023-04-24T22:00:19;33.0;;;20.0;;
53939;SDS011;39850;43.324;21.916;2023-04-24T22:04:56;33.0;;;20.0;;
53939;SDS011;39850;43.324;21.916;2023-04-24T22:09:33;33.0;;;20.0;;
53939;SDS011;39850;43.324;21.916;2023-04-24T22:14:10;10.0;;;10.0;;
53939;SDS011;39850;43.324;21.916;2023-04-24T22:18:49;10.0;;;10.0;;
53939;SDS011;39850;43.324;21.916;2023-04-24T23:04:57;8.0;;;6.0;;
53939;SDS011;39850;43.324;21.916;2023-04-24T23:09:34;8.0;;;6.0;;
53939;SDS011;39850;43.324;21.916;2023-04-24T23:14:11;8.0;;;6.0;;
53939;SDS011;39850;43.324;21.916;2023-04-24T23:18:47;8.0;;;6.0;;
53939;SDS011;39850;43.324;21.916;2023-04-24T23:23:24;8.0;;;7.0;;
53939;SDS011;39850;43.324;21.916;2023-04-24T23:28:00;8.0;;;7.0;;
53939;SDS011;39850;43.324;21.916;2023-04-24T23:32:37;8.0;;;7.0;;
53939;SDS011;39850;43.324;21.916;2023-04-24T23:37:14;8.0;;;7.0;;
53939;SDS011;39850;43.324;21.916;2023-04-24T23:41:50;8.0;;;7.0;;
53939;SDS011;39850;43.324;21.916;2023-04-24T23:46:27;8.0;;;7.0;;
53939;SDS011;39850;43.324;21.916;2023-04-24T23:51:05;8.0;;;7.0;;
